sensor_id;sensor_type;location;lat;lon;timestamp;pressure;altitude;pressure_sealevel;temperature;humidity
39793;BME280;26080;42.264;24.536;2023-08-07T00:00:19;98488.69;;;20.95;82.30
39793;BME280;26080;42.264;24.536;2023-08-07T00:02:45;98489.66;;;20.86;82.69
39793;BME280;26080;42.264;24.536;2023-08-07T00:05:10;98497.91;;;20.75;83.44
39793;BME280;26080;42.264;24.536;2023-08-07T00:07:35;98506.81;;;20.66;84.75
39793;BME280;26080;42.264;24.536;2023-08-07T00:10:01;98504.25;;;20.56;86.29
39793;BME280;26080;42.264;24.536;2023-08-07T00:12:27;98510.34;;;20.49;88.06
39793;BME280;26080;42.264;24.536;2023-08-07T00:14:52;98505.22;;;20.37;88.80
39793;BME280;26080;42.264;24.536;2023-08-07T00:17:18;98501.97;;;20.26;89.09
39793;BME280;26080;42.264;24.536;2023-08-07T00:19:43;98499.03;;;20.29;88.12
39793;BME280;26080;42.264;24.536;2023-08-07T00:22:08;98494.13;;;20.24;88.79
39793;BME280;26080;42.264;24.536;2023-08-07T00:24:34;98501.44;;;20.22;87.61
39793;BME280;26080;42.264;24.536;2023-08-07T00:27:00;98473.50;;;20.18;87.87
39793;BME280;26080;42.264;24.536;2023-08-07T00:29:25;98504.22;;;20.38;87.08
39793;BME280;26080;42.264;24.536;2023-08-07T00:31:51;98498.25;;;20.36;87.21
39793;BME280;26080;42.264;24.536;2023-08-07T00:34:16;98509.03;;;20.35;88.17
39793;BME280;26080;42.264;24.536;2023-08-07T00:36:42;98511.16;;;20.31;88.42
39793;BME280;26080;42.264;24.536;2023-08-07T00:39:07;98498.69;;;20.14;89.90
39793;BME280;26080;42.264;24.536;2023-08-07T00:41:33;98498.94;;;20.21;90.11
39793;BME280;26080;42.264;24.536;2023-08-07T00:43:59;98504.16;;;20.12;90.46
39793;BME280;26080;42.264;24.536;2023-08-07T00:46:24;98497.66;;;20.07;91.07
39793;BME280;26080;42.264;24.536;2023-08-07T00:48:51;98509.44;;;20.04;91.42
39793;BME280;26080;42.264;24.536;2023-08-07T00:51:17;98513.34;;;20.00;91.93
39793;BME280;26080;42.264;24.536;2023-08-07T00:53:43;98531.28;;;19.98;92.76
39793;BME280;26080;42.264;24.536;2023-08-07T00:56:09;98533.03;;;19.90;93.08
39793;BME280;26080;42.264;24.536;2023-08-07T00:58:34;98536.13;;;19.85;93.35
39793;BME280;26080;42.264;24.536;2023-08-07T01:01:00;98537.72;;;19.96;92.57
39793;BME280;26080;42.264;24.536;2023-08-07T01:03:25;98535.00;;;19.88;93.57
39793;BME280;26080;42.264;24.536;2023-08-07T01:05:51;98541.44;;;19.85;93.65
39793;BME280;26080;42.264;24.536;2023-08-07T01:08:16;98540.91;;;19.81;94.59
39793;BME280;26080;42.264;24.536;2023-08-07T01:13:30;98528.72;;;19.61;95.43
39793;BME280;26080;42.264;24.536;2023-08-07T01:16:02;98550.16;;;19.77;94.91
39793;BME280;26080;42.264;24.536;2023-08-07T01:18:29;98540.94;;;19.72;95.24
39793;BME280;26080;42.264;24.536;2023-08-07T01:20:55;98537.06;;;19.66;95.96
39793;BME280;26080;42.264;24.536;2023-08-07T01:23:21;98533.44;;;19.67;96.05
39793;BME280;26080;42.264;24.536;2023-08-07T01:25:47;98516.59;;;19.49;96.80
39793;BME280;26080;42.264;24.536;2023-08-07T01:28:19;98531.53;;;19.50;97.17
39793;BME280;26080;42.264;24.536;2023-08-07T01:30:50;98524.84;;;19.46;97.48
39793;BME280;26080;42.264;24.536;2023-08-07T01:33:22;98519.66;;;19.44;97.60
39793;BME280;26080;42.264;24.536;2023-08-07T01:35:53;98531.03;;;19.37;98.42
39793;BME280;26080;42.264;24.536;2023-08-07T01:38:23;98510.38;;;19.31;98.31
39793;BME280;26080;42.264;24.536;2023-08-07T01:40:49;98521.00;;;19.31;98.38
39793;BME280;26080;42.264;24.536;2023-08-07T01:43:16;98515.59;;;19.22;99.12
39793;BME280;26080;42.264;24.536;2023-08-07T01:45:42;98527.75;;;19.25;98.79
39793;BME280;26080;42.264;24.536;2023-08-07T01:48:07;98526.22;;;19.22;99.22
39793;BME280;26080;42.264;24.536;2023-08-07T01:50:33;98506.16;;;19.10;98.86
39793;BME280;26080;42.264;24.536;2023-08-07T01:52:59;98525.53;;;19.20;99.67
39793;BME280;26080;42.264;24.536;2023-08-07T01:55:24;98524.63;;;19.30;97.44
39793;BME280;26080;42.264;24.536;2023-08-07T01:57:50;98531.88;;;19.37;97.38
39793;BME280;26080;42.264;24.536;2023-08-07T02:00:16;98534.00;;;19.34;97.30
39793;BME280;26080;42.264;24.536;2023-08-07T02:02:41;98541.13;;;19.33;97.89
39793;BME280;26080;42.264;24.536;2023-08-07T02:05:07;98550.19;;;19.31;98.39
39793;BME280;26080;42.264;24.536;2023-08-07T02:07:32;98551.34;;;19.18;99.25
39793;BME280;26080;42.264;24.536;2023-08-07T02:09:58;98547.09;;;19.08;100.00
39793;BME280;26080;42.264;24.536;2023-08-07T02:12:24;98530.38;;;18.88;100.00
39793;BME280;26080;42.264;24.536;2023-08-07T02:14:50;98528.28;;;18.82;100.00
39793;BME280;26080;42.264;24.536;2023-08-07T02:17:16;98558.03;;;18.85;100.00
39793;BME280;26080;42.264;24.536;2023-08-07T02:19:41;98563.91;;;18.79;100.00
39793;BME280;26080;42.264;24.536;2023-08-07T02:22:07;98573.09;;;18.75;100.00
39793;BME280;26080;42.264;24.536;2023-08-07T02:24:32;98581.78;;;18.68;100.00
39793;BME280;26080;42.264;24.536;2023-08-07T02:26:58;98587.59;;;18.61;100.00
39793;BME280;26080;42.264;24.536;2023-08-07T02:29:23;98588.88;;;18.48;100.00
39793;BME280;26080;42.264;24.536;2023-08-07T02:31:48;98585.13;;;18.41;100.00
39793;BME280;26080;42.264;24.536;2023-08-07T02:34:14;98597.38;;;18.32;100.00
39793;BME280;26080;42.264;24.536;2023-08-07T02:36:39;98595.13;;;18.18;100.00
39793;BME280;26080;42.264;24.536;2023-08-07T02:39:05;98608.38;;;18.18;100.00
39793;BME280;26080;42.264;24.536;2023-08-07T02:41:30;98610.75;;;18.21;100.00
39793;BME280;26080;42.264;24.536;2023-08-07T02:43:57;98618.00;;;18.19;100.00
39793;BME280;26080;42.264;24.536;2023-08-07T02:46:22;98613.97;;;18.15;100.00
39793;BME280;26080;42.264;24.536;2023-08-07T02:48:48;98618.56;;;18.13;100.00
39793;BME280;26080;42.264;24.536;2023-08-07T02:51:13;98607.94;;;18.03;100.00
39793;BME280;26080;42.264;24.536;2023-08-07T02:53:38;98615.47;;;18.08;100.00
39793;BME280;26080;42.264;24.536;2023-08-07T02:56:04;98615.47;;;18.08;100.00
39793;BME280;26080;42.264;24.536;2023-08-07T02:58:29;98628.56;;;18.09;100.00
39793;BME280;26080;42.264;24.536;2023-08-07T03:00:55;98623.97;;;18.01;100.00
39793;BME280;26080;42.264;24.536;2023-08-07T03:03:20;98627.03;;;18.06;100.00
39793;BME280;26080;42.264;24.536;2023-08-07T03:05:50;98627.44;;;18.02;100.00
39793;BME280;26080;42.264;24.536;2023-08-07T03:08:16;98608.59;;;17.86;100.00
39793;BME280;26080;42.264;24.536;2023-08-07T03:10:41;98616.03;;;18.01;100.00
39793;BME280;26080;42.264;24.536;2023-08-07T03:13:07;98606.81;;;17.96;100.00
39793;BME280;26080;42.264;24.536;2023-08-07T03:15:32;98627.72;;;18.09;100.00
39793;BME280;26080;42.264;24.536;2023-08-07T03:17:57;98610.16;;;17.98;100.00
39793;BME280;26080;42.264;24.536;2023-08-07T03:20:23;98627.47;;;18.12;100.00
39793;BME280;26080;42.264;24.536;2023-08-07T03:22:48;98626.50;;;18.13;100.00
39793;BME280;26080;42.264;24.536;2023-08-07T03:25:14;98628.88;;;18.16;100.00
39793;BME280;26080;42.264;24.536;2023-08-07T03:27:39;98641.56;;;18.22;100.00
39793;BME280;26080;42.264;24.536;2023-08-07T03:30:05;98642.53;;;18.21;100.00
39793;BME280;26080;42.264;24.536;2023-08-07T03:32:31;98640.47;;;18.15;100.00
39793;BME280;26080;42.264;24.536;2023-08-07T03:34:56;98634.00;;;18.08;100.00
39793;BME280;26080;42.264;24.536;2023-08-07T03:37:22;98649.81;;;18.19;100.00
39793;BME280;26080;42.264;24.536;2023-08-07T03:39:47;98641.44;;;18.14;100.00
39793;BME280;26080;42.264;24.536;2023-08-07T03:42:13;98628.16;;;18.04;100.00
39793;BME280;26080;42.264;24.536;2023-08-07T03:44:40;98642.75;;;18.39;100.00
39793;BME280;26080;42.264;24.536;2023-08-07T03:47:06;98640.13;;;19.06;100.00
39793;BME280;26080;42.264;24.536;2023-08-07T03:49:31;98644.91;;;19.87;100.00
39793;BME280;26080;42.264;24.536;2023-08-07T03:51:57;98641.16;;;20.34;99.57
39793;BME280;26080;42.264;24.536;2023-08-07T03:54:24;98644.09;;;20.59;97.84
39793;BME280;26080;42.264;24.536;2023-08-07T03:56:50;98647.16;;;21.08;95.31
39793;BME280;26080;42.264;24.536;2023-08-07T03:59:17;98654.69;;;21.30;92.71
39793;BME280;26080;42.264;24.536;2023-08-07T04:01:42;98663.28;;;21.50;91.26
39793;BME280;26080;42.264;24.536;2023-08-07T04:04:08;98659.34;;;21.88;88.34
39793;BME280;26080;42.264;24.536;2023-08-07T04:06:34;98648.16;;;22.18;86.01
39793;BME280;26080;42.264;24.536;2023-08-07T04:09:00;98667.84;;;21.92;87.85
39793;BME280;26080;42.264;24.536;2023-08-07T04:11:25;98671.84;;;21.87;88.92
39793;BME280;26080;42.264;24.536;2023-08-07T04:13:51;98655.88;;;21.62;89.59
39793;BME280;26080;42.264;24.536;2023-08-07T04:16:17;98664.00;;;21.86;88.64
39793;BME280;26080;42.264;24.536;2023-08-07T04:18:42;98671.75;;;22.47;85.69
39793;BME280;26080;42.264;24.536;2023-08-07T04:21:08;98676.16;;;22.81;82.67
39793;BME280;26080;42.264;24.536;2023-08-07T04:23:33;98680.69;;;23.13;82.01
39793;BME280;26080;42.264;24.536;2023-08-07T04:25:59;98681.88;;;23.27;80.33
39793;BME280;26080;42.264;24.536;2023-08-07T04:28:25;98683.94;;;22.50;84.63
39793;BME280;26080;42.264;24.536;2023-08-07T04:30:51;98687.66;;;21.81;88.53
39793;BME280;26080;42.264;24.536;2023-08-07T04:33:17;98680.53;;;21.38;91.34
39793;BME280;26080;42.264;24.536;2023-08-07T04:35:42;98697.50;;;21.19;92.19
39793;BME280;26080;42.264;24.536;2023-08-07T04:38:08;98696.19;;;21.23;92.69
39793;BME280;26080;42.264;24.536;2023-08-07T04:40:33;98700.81;;;21.31;92.25
39793;BME280;26080;42.264;24.536;2023-08-07T04:42:59;98698.41;;;21.45;91.90
39793;BME280;26080;42.264;24.536;2023-08-07T04:45:25;98705.00;;;21.59;91.67
39793;BME280;26080;42.264;24.536;2023-08-07T04:47:50;98691.00;;;21.91;89.19
39793;BME280;26080;42.264;24.536;2023-08-07T04:50:16;98690.97;;;22.09;87.94
39793;BME280;26080;42.264;24.536;2023-08-07T04:52:41;98707.16;;;22.15;87.45
39793;BME280;26080;42.264;24.536;2023-08-07T04:55:07;98700.25;;;22.05;87.35
39793;BME280;26080;42.264;24.536;2023-08-07T04:57:32;98705.00;;;21.59;89.73
39793;BME280;26080;42.264;24.536;2023-08-07T04:59:58;98706.31;;;22.07;87.26
39793;BME280;26080;42.264;24.536;2023-08-07T05:02:23;98684.25;;;22.39;85.49
39793;BME280;26080;42.264;24.536;2023-08-07T05:04:49;98695.75;;;22.47;84.09
39793;BME280;26080;42.264;24.536;2023-08-07T05:07:14;98687.66;;;22.15;85.54
39793;BME280;26080;42.264;24.536;2023-08-07T05:09:40;98694.44;;;21.75;89.23
39793;BME280;26080;42.264;24.536;2023-08-07T05:12:06;98690.00;;;21.32;90.34
39793;BME280;26080;42.264;24.536;2023-08-07T05:14:32;98673.50;;;21.28;90.51
39793;BME280;26080;42.264;24.536;2023-08-07T05:16:57;98691.28;;;21.28;91.81
39793;BME280;26080;42.264;24.536;2023-08-07T05:19:23;98688.06;;;21.42;92.42
39793;BME280;26080;42.264;24.536;2023-08-07T05:21:48;98696.09;;;21.50;93.10
39793;BME280;26080;42.264;24.536;2023-08-07T05:24:16;98692.56;;;21.42;93.00
39793;BME280;26080;42.264;24.536;2023-08-07T05:26:42;98683.00;;;21.31;93.44
39793;BME280;26080;42.264;24.536;2023-08-07T05:29:07;98699.66;;;21.33;94.12
39793;BME280;26080;42.264;24.536;2023-08-07T05:31:33;98703.72;;;21.45;93.65
39793;BME280;26080;42.264;24.536;2023-08-07T05:33:59;98702.25;;;21.51;93.05
39793;BME280;26080;42.264;24.536;2023-08-07T05:36:24;98700.72;;;21.66;93.53
39793;BME280;26080;42.264;24.536;2023-08-07T05:38:50;98702.66;;;21.82;92.62
39793;BME280;26080;42.264;24.536;2023-08-07T05:41:15;98704.66;;;21.88;91.27
39793;BME280;26080;42.264;24.536;2023-08-07T05:43:41;98715.31;;;21.88;90.40
39793;BME280;26080;42.264;24.536;2023-08-07T05:46:07;98718.66;;;21.90;92.30
39793;BME280;26080;42.264;24.536;2023-08-07T05:48:32;98724.31;;;21.87;91.87
39793;BME280;26080;42.264;24.536;2023-08-07T05:50:58;98722.66;;;21.86;90.03
39793;BME280;26080;42.264;24.536;2023-08-07T05:53:23;98714.13;;;21.82;91.00
39793;BME280;26080;42.264;24.536;2023-08-07T05:55:48;98707.31;;;21.80;90.60
39793;BME280;26080;42.264;24.536;2023-08-07T05:58:14;98716.41;;;22.03;90.84
39793;BME280;26080;42.264;24.536;2023-08-07T06:00:39;98717.47;;;22.10;88.81
39793;BME280;26080;42.264;24.536;2023-08-07T06:03:05;98717.03;;;22.23;88.07
39793;BME280;26080;42.264;24.536;2023-08-07T06:05:30;98717.88;;;22.32;86.57
39793;BME280;26080;42.264;24.536;2023-08-07T06:07:55;98718.25;;;22.37;86.00
39793;BME280;26080;42.264;24.536;2023-08-07T06:10:21;98720.72;;;22.30;83.73
39793;BME280;26080;42.264;24.536;2023-08-07T06:12:46;98716.38;;;22.29;85.09
39793;BME280;26080;42.264;24.536;2023-08-07T06:15:12;98723.44;;;22.38;83.66
39793;BME280;26080;42.264;24.536;2023-08-07T06:17:37;98713.59;;;22.47;84.17
39793;BME280;26080;42.264;24.536;2023-08-07T06:20:07;98713.47;;;22.49;82.64
39793;BME280;26080;42.264;24.536;2023-08-07T06:22:34;98707.97;;;22.58;83.09
39793;BME280;26080;42.264;24.536;2023-08-07T06:24:59;98707.47;;;22.55;82.42
39793;BME280;26080;42.264;24.536;2023-08-07T06:27:25;98708.84;;;22.75;82.64
39793;BME280;26080;42.264;24.536;2023-08-07T06:29:50;98707.69;;;22.77;81.43
39793;BME280;26080;42.264;24.536;2023-08-07T06:32:16;98709.72;;;22.84;80.48
39793;BME280;26080;42.264;24.536;2023-08-07T06:34:43;98700.72;;;22.93;82.64
39793;BME280;26080;42.264;24.536;2023-08-07T06:37:08;98708.75;;;22.93;81.00
39793;BME280;26080;42.264;24.536;2023-08-07T06:39:34;98708.72;;;23.01;80.32
39793;BME280;26080;42.264;24.536;2023-08-07T06:41:59;98704.22;;;23.01;80.13
39793;BME280;26080;42.264;24.536;2023-08-07T06:44:26;98706.75;;;23.11;79.66
39793;BME280;26080;42.264;24.536;2023-08-07T06:46:51;98720.44;;;23.24;79.45
39793;BME280;26080;42.264;24.536;2023-08-07T06:49:17;98724.13;;;23.23;79.34
39793;BME280;26080;42.264;24.536;2023-08-07T06:51:43;98724.09;;;23.40;78.00
39793;BME280;26080;42.264;24.536;2023-08-07T06:54:08;98722.59;;;23.37;75.48
39793;BME280;26080;42.264;24.536;2023-08-07T06:56:33;98722.78;;;23.44;75.71
39793;BME280;26080;42.264;24.536;2023-08-07T06:58:59;98714.09;;;23.50;77.35
39793;BME280;26080;42.264;24.536;2023-08-07T07:01:24;98714.44;;;23.63;73.77
39793;BME280;26080;42.264;24.536;2023-08-07T07:03:50;98703.41;;;23.66;71.98
39793;BME280;26080;42.264;24.536;2023-08-07T07:06:18;98711.72;;;23.87;63.50
39793;BME280;26080;42.264;24.536;2023-08-07T07:08:44;98672.78;;;23.85;57.67
39793;BME280;26080;42.264;24.536;2023-08-07T07:11:09;98693.91;;;24.11;57.58
39793;BME280;26080;42.264;24.536;2023-08-07T07:13:35;98693.16;;;24.25;57.31
39793;BME280;26080;42.264;24.536;2023-08-07T07:16:00;98697.88;;;24.31;55.43
39793;BME280;26080;42.264;24.536;2023-08-07T07:18:26;98684.50;;;24.31;55.53
39793;BME280;26080;42.264;24.536;2023-08-07T07:21:00;98698.78;;;24.46;55.32
39793;BME280;26080;42.264;24.536;2023-08-07T07:23:26;98697.94;;;24.54;55.83
39793;BME280;26080;42.264;24.536;2023-08-07T07:25:52;98695.41;;;24.52;54.87
39793;BME280;26080;42.264;24.536;2023-08-07T07:28:17;98684.94;;;24.66;54.67
39793;BME280;26080;42.264;24.536;2023-08-07T07:30:43;98711.28;;;24.85;54.73
39793;BME280;26080;42.264;24.536;2023-08-07T07:33:08;98702.84;;;24.96;56.40
39793;BME280;26080;42.264;24.536;2023-08-07T07:35:37;98707.00;;;24.99;55.29
39793;BME280;26080;42.264;24.536;2023-08-07T07:38:03;98693.97;;;24.96;53.65
39793;BME280;26080;42.264;24.536;2023-08-07T07:40:28;98698.09;;;25.06;50.20
39793;BME280;26080;42.264;24.536;2023-08-07T07:42:54;98705.06;;;25.16;49.06
39793;BME280;26080;42.264;24.536;2023-08-07T07:45:19;98697.31;;;25.21;49.38
39793;BME280;26080;42.264;24.536;2023-08-07T07:47:45;98705.75;;;25.32;44.76
39793;BME280;26080;42.264;24.536;2023-08-07T07:50:10;98707.41;;;25.33;46.85
39793;BME280;26080;42.264;24.536;2023-08-07T07:52:38;98685.25;;;25.39;45.61
39793;BME280;26080;42.264;24.536;2023-08-07T07:55:03;98706.34;;;25.57;44.37
39793;BME280;26080;42.264;24.536;2023-08-07T07:57:30;98681.59;;;25.55;42.25
39793;BME280;26080;42.264;24.536;2023-08-07T07:59:56;98672.72;;;25.55;44.34
39793;BME280;26080;42.264;24.536;2023-08-07T08:02:22;98669.66;;;25.58;44.79
39793;BME280;26080;42.264;24.536;2023-08-07T08:04:50;98682.47;;;25.71;44.55
39793;BME280;26080;42.264;24.536;2023-08-07T08:07:16;98677.44;;;25.67;45.56
39793;BME280;26080;42.264;24.536;2023-08-07T08:09:41;98681.19;;;25.81;47.07
39793;BME280;26080;42.264;24.536;2023-08-07T08:12:07;98655.19;;;25.82;45.21
39793;BME280;26080;42.264;24.536;2023-08-07T08:14:33;98686.53;;;25.96;45.19
39793;BME280;26080;42.264;24.536;2023-08-07T08:16:58;98681.63;;;25.99;42.06
39793;BME280;26080;42.264;24.536;2023-08-07T08:19:24;98680.72;;;26.07;42.23
39793;BME280;26080;42.264;24.536;2023-08-07T08:21:49;98673.94;;;26.11;42.55
39793;BME280;26080;42.264;24.536;2023-08-07T08:24:14;98654.91;;;25.91;42.36
39793;BME280;26080;42.264;24.536;2023-08-07T08:26:40;98683.28;;;26.15;40.97
39793;BME280;26080;42.264;24.536;2023-08-07T08:29:06;98671.38;;;26.18;40.38
39793;BME280;26080;42.264;24.536;2023-08-07T08:31:33;98680.78;;;26.14;41.28
39793;BME280;26080;42.264;24.536;2023-08-07T08:33:59;98659.69;;;26.11;41.82
39793;BME280;26080;42.264;24.536;2023-08-07T08:36:24;98668.19;;;26.14;40.09
39793;BME280;26080;42.264;24.536;2023-08-07T08:38:50;98674.75;;;26.26;39.72
39793;BME280;26080;42.264;24.536;2023-08-07T08:41:17;98661.38;;;26.12;40.29
39793;BME280;26080;42.264;24.536;2023-08-07T08:43:45;98662.28;;;26.19;39.92
39793;BME280;26080;42.264;24.536;2023-08-07T08:46:11;98656.25;;;26.32;38.07
39793;BME280;26080;42.264;24.536;2023-08-07T08:48:40;98667.03;;;26.53;38.20
39793;BME280;26080;42.264;24.536;2023-08-07T08:51:08;98661.97;;;26.43;38.26
39793;BME280;26080;42.264;24.536;2023-08-07T08:53:35;98648.09;;;26.40;36.95
39793;BME280;26080;42.264;24.536;2023-08-07T08:56:01;98655.28;;;26.54;35.59
39793;BME280;26080;42.264;24.536;2023-08-07T08:58:27;98626.88;;;26.45;37.11
39793;BME280;26080;42.264;24.536;2023-08-07T09:00:53;98650.97;;;26.74;37.02
39793;BME280;26080;42.264;24.536;2023-08-07T09:03:19;98645.59;;;26.74;38.12
39793;BME280;26080;42.264;24.536;2023-08-07T09:05:45;98636.75;;;26.80;35.42
39793;BME280;26080;42.264;24.536;2023-08-07T09:08:12;98633.47;;;26.85;37.98
39793;BME280;26080;42.264;24.536;2023-08-07T09:10:39;98640.00;;;26.97;36.93
39793;BME280;26080;42.264;24.536;2023-08-07T09:13:09;98640.09;;;27.04;36.04
39793;BME280;26080;42.264;24.536;2023-08-07T09:15:36;98625.09;;;26.95;36.08
39793;BME280;26080;42.264;24.536;2023-08-07T09:18:05;98637.25;;;27.12;36.58
39793;BME280;26080;42.264;24.536;2023-08-07T09:20:33;98607.47;;;27.07;36.33
39793;BME280;26080;42.264;24.536;2023-08-07T09:23:00;98608.50;;;27.06;36.08
39793;BME280;26080;42.264;24.536;2023-08-07T09:25:33;98626.47;;;27.33;35.20
39793;BME280;26080;42.264;24.536;2023-08-07T09:28:01;98621.50;;;27.30;35.10
39793;BME280;26080;42.264;24.536;2023-08-07T09:30:32;98619.28;;;27.40;34.87
39793;BME280;26080;42.264;24.536;2023-08-07T09:32:58;98605.91;;;27.19;35.57
39793;BME280;26080;42.264;24.536;2023-08-07T09:35:24;98609.09;;;27.29;36.33
39793;BME280;26080;42.264;24.536;2023-08-07T09:37:50;98608.72;;;27.39;35.16
39793;BME280;26080;42.264;24.536;2023-08-07T09:40:17;98604.88;;;27.55;35.60
39793;BME280;26080;42.264;24.536;2023-08-07T09:42:43;98600.44;;;27.68;35.48
39793;BME280;26080;42.264;24.536;2023-08-07T09:45:28;98600.16;;;27.85;34.41
39793;BME280;26080;42.264;24.536;2023-08-07T09:48:05;98590.47;;;27.97;33.53
39793;BME280;26080;42.264;24.536;2023-08-07T09:50:36;98603.94;;;28.03;33.75
39793;BME280;26080;42.264;24.536;2023-08-07T09:53:02;98602.41;;;28.29;33.86
39793;BME280;26080;42.264;24.536;2023-08-07T09:55:27;98596.00;;;28.30;33.88
39793;BME280;26080;42.264;24.536;2023-08-07T09:57:53;98594.47;;;28.21;35.18
39793;BME280;26080;42.264;24.536;2023-08-07T10:00:19;98584.59;;;28.35;33.18
39793;BME280;26080;42.264;24.536;2023-08-07T10:02:46;98585.00;;;28.31;33.86
39793;BME280;26080;42.264;24.536;2023-08-07T10:05:13;98582.47;;;28.23;33.84
39793;BME280;26080;42.264;24.536;2023-08-07T10:07:39;98576.44;;;28.21;32.22
39793;BME280;26080;42.264;24.536;2023-08-07T10:10:05;98578.72;;;28.18;33.54
39793;BME280;26080;42.264;24.536;2023-08-07T10:12:32;98576.25;;;28.23;35.47
39793;BME280;26080;42.264;24.536;2023-08-07T10:14:59;98570.88;;;28.23;34.36
39793;BME280;26080;42.264;24.536;2023-08-07T10:17:25;98571.38;;;28.46;33.82
39793;BME280;26080;42.264;24.536;2023-08-07T10:19:53;98571.38;;;28.59;33.52
39793;BME280;26080;42.264;24.536;2023-08-07T10:22:19;98574.91;;;28.53;32.38
39793;BME280;26080;42.264;24.536;2023-08-07T10:24:47;98567.66;;;28.54;33.32
39793;BME280;26080;42.264;24.536;2023-08-07T10:27:15;98567.25;;;28.63;32.22
39793;BME280;26080;42.264;24.536;2023-08-07T10:29:43;98562.06;;;28.62;31.59
39793;BME280;26080;42.264;24.536;2023-08-07T10:32:12;98536.34;;;28.46;32.13
39793;BME280;26080;42.264;24.536;2023-08-07T10:34:38;98559.81;;;28.66;32.32
39793;BME280;26080;42.264;24.536;2023-08-07T10:37:07;98557.72;;;28.61;32.69
39793;BME280;26080;42.264;24.536;2023-08-07T10:39:33;98566.84;;;28.67;33.05
39793;BME280;26080;42.264;24.536;2023-08-07T10:41:59;98549.03;;;28.66;33.42
39793;BME280;26080;42.264;24.536;2023-08-07T10:44:25;98552.34;;;28.68;32.94
39793;BME280;26080;42.264;24.536;2023-08-07T10:46:55;98546.50;;;28.64;33.62
39793;BME280;26080;42.264;24.536;2023-08-07T10:52:02;98545.72;;;28.83;33.09
39793;BME280;26080;42.264;24.536;2023-08-07T10:54:27;98535.97;;;28.89;31.98
39793;BME280;26080;42.264;24.536;2023-08-07T10:56:54;98545.50;;;29.05;30.06
39793;BME280;26080;42.264;24.536;2023-08-07T10:59:20;98542.81;;;29.11;30.69
39793;BME280;26080;42.264;24.536;2023-08-07T11:01:50;98533.50;;;29.01;30.85
39793;BME280;26080;42.264;24.536;2023-08-07T11:04:16;98539.94;;;28.93;33.15
39793;BME280;26080;42.264;24.536;2023-08-07T11:06:43;98536.59;;;29.04;33.71
39793;BME280;26080;42.264;24.536;2023-08-07T11:09:10;98535.34;;;29.13;33.96
39793;BME280;26080;42.264;24.536;2023-08-07T11:11:46;98506.56;;;28.94;32.95
39793;BME280;26080;42.264;24.536;2023-08-07T11:14:14;98512.94;;;29.13;34.26
39793;BME280;26080;42.264;24.536;2023-08-07T11:16:40;98520.63;;;29.23;34.44
39793;BME280;26080;42.264;24.536;2023-08-07T11:19:06;98499.69;;;29.11;31.27
39793;BME280;26080;42.264;24.536;2023-08-07T11:21:32;98517.91;;;29.23;31.31
39793;BME280;26080;42.264;24.536;2023-08-07T11:23:58;98513.09;;;29.31;29.28
39793;BME280;26080;42.264;24.536;2023-08-07T11:26:23;98508.75;;;29.37;29.36
39793;BME280;26080;42.264;24.536;2023-08-07T11:28:51;98510.81;;;29.48;29.17
39793;BME280;26080;42.264;24.536;2023-08-07T11:31:20;98511.00;;;29.46;30.38
39793;BME280;26080;42.264;24.536;2023-08-07T11:33:49;98489.38;;;29.60;28.80
39793;BME280;26080;42.264;24.536;2023-08-07T11:36:15;98500.34;;;29.71;28.96
39793;BME280;26080;42.264;24.536;2023-08-07T11:38:42;98508.59;;;29.83;32.24
39793;BME280;26080;42.264;24.536;2023-08-07T11:41:09;98479.63;;;29.65;30.23
39793;BME280;26080;42.264;24.536;2023-08-07T11:43:36;98506.97;;;29.75;30.29
39793;BME280;26080;42.264;24.536;2023-08-07T11:46:03;98507.75;;;29.89;31.31
39793;BME280;26080;42.264;24.536;2023-08-07T11:48:33;98508.53;;;29.96;28.89
39793;BME280;26080;42.264;24.536;2023-08-07T11:50:59;98504.00;;;29.90;28.92
39793;BME280;26080;42.264;24.536;2023-08-07T11:53:29;98498.16;;;29.93;32.99
39793;BME280;26080;42.264;24.536;2023-08-07T11:55:55;98498.53;;;30.03;33.42
39793;BME280;26080;42.264;24.536;2023-08-07T11:58:21;98484.00;;;29.98;28.88
39793;BME280;26080;42.264;24.536;2023-08-07T12:00:47;98496.88;;;30.02;31.02
39793;BME280;26080;42.264;24.536;2023-08-07T12:03:29;98491.47;;;30.09;31.07
39793;BME280;26080;42.264;24.536;2023-08-07T12:05:56;98488.97;;;30.07;30.54
39793;BME280;26080;42.264;24.536;2023-08-07T12:08:22;98490.84;;;30.07;31.03
39793;BME280;26080;42.264;24.536;2023-08-07T12:10:53;98495.63;;;30.05;29.81
39793;BME280;26080;42.264;24.536;2023-08-07T12:13:25;98483.97;;;30.11;29.37
39793;BME280;26080;42.264;24.536;2023-08-07T12:15:54;98482.91;;;30.12;29.88
39793;BME280;26080;42.264;24.536;2023-08-07T12:18:21;98445.78;;;30.01;29.55
39793;BME280;26080;42.264;24.536;2023-08-07T12:20:51;98474.03;;;30.05;29.75
39793;BME280;26080;42.264;24.536;2023-08-07T12:23:18;98476.28;;;30.01;28.02
39793;BME280;26080;42.264;24.536;2023-08-07T12:25:45;98465.50;;;30.08;32.39
39793;BME280;26080;42.264;24.536;2023-08-07T12:28:11;98464.81;;;30.19;31.71
39793;BME280;26080;42.264;24.536;2023-08-07T12:30:37;98462.34;;;30.18;31.31
39793;BME280;26080;42.264;24.536;2023-08-07T12:33:03;98451.03;;;30.27;31.98
39793;BME280;26080;42.264;24.536;2023-08-07T12:35:34;98470.31;;;30.56;33.27
39793;BME280;26080;42.264;24.536;2023-08-07T12:38:00;98466.56;;;30.63;32.59
39793;BME280;26080;42.264;24.536;2023-08-07T12:40:27;98466.28;;;30.72;32.58
39793;BME280;26080;42.264;24.536;2023-08-07T12:42:52;98446.56;;;30.71;32.02
39793;BME280;26080;42.264;24.536;2023-08-07T12:45:18;98462.63;;;30.84;32.00
39793;BME280;26080;42.264;24.536;2023-08-07T12:47:45;98469.03;;;30.90;31.38